Time;durP1;ratioP1;P1;durP2;ratioP2;P2;SDS_P1;SDS_P2;PMS_P1;PMS_P2;Temp;Humidity;BMP_temperature;BMP_pressure;BME280_temperature;BME280_humidity;BME280_pressure;Samples;Min_cycle;Max_cycle;Signal;HPM_P1;HPM_P2
2022/01/15 00:01:15;;;;;;;2.10;1.60;;;1.10;99.90;;;;;;7391842;19;20707;-85
2022/01/15 00:03:41;;;;;;;4.20;2.23;;;1.00;99.90;;;;;;7392814;19;20320;-85
2022/01/15 00:06:07;;;;;;;4.73;1.97;;;1.00;99.90;;;;;;7390440;19;20339;-89
2022/01/15 00:08:32;;;;;;;3.08;2.10;;;1.00;99.90;;;;;;7388871;19;20353;-82
2022/01/15 00:10:58;;;;;;;4.67;1.80;;;0.90;99.90;;;;;;7387207;19;20372;-88
2022/01/15 00:13:27;;;;;;;3.60;2.17;;;0.90;99.90;;;;;;7384584;19;20318;-89
2022/01/15 00:16:05;;;;;;;3.72;2.10;;;0.90;99.90;;;;;;7384649;19;20312;-80
2022/01/15 00:18:59;;;;;;;5.10;2.20;;;0.80;99.90;;;;;;7280861;19;2008339;-85
2022/01/15 00:21:26;;;;;;;4.13;2.00;;;0.80;99.90;;;;;;7281322;19;2004429;-84
2022/01/15 00:23:51;;;;;;;1.88;1.60;;;0.80;99.90;;;;;;7384089;19;20315;-83
2022/01/15 00:26:17;;;;;;;1.90;1.42;;;0.80;99.90;;;;;;7387624;19;20305;-86
2022/01/15 00:28:43;;;;;;;3.87;1.93;;;0.80;99.90;;;;;;7384989;19;20333;-87
2022/01/15 00:31:08;;;;;;;3.40;1.70;;;0.80;99.90;;;;;;7384943;19;20416;-88
2022/01/15 00:33:34;;;;;;;1.83;1.60;;;0.80;99.90;;;;;;7372977;19;20465;-81
2022/01/15 00:35:59;;;;;;;3.00;1.37;;;0.70;99.90;;;;;;7385948;19;20308;-81
2022/01/15 00:38:25;;;;;;;1.98;1.48;;;0.60;99.90;;;;;;7366639;19;20349;-85
2022/01/15 00:40:51;;;;;;;2.63;1.70;;;0.70;99.90;;;;;;7380913;19;20463;-82
2022/01/15 00:43:18;;;;;;;2.60;1.50;;;0.60;99.90;;;;;;7379381;19;20801;-78
2022/01/15 00:45:44;;;;;;;1.40;1.30;;;0.60;99.90;;;;;;7379002;19;20312;-81
2022/01/15 00:48:09;;;;;;;2.45;1.58;;;0.60;99.90;;;;;;7368409;19;20431;-83
2022/01/15 00:50:35;;;;;;;1.87;1.50;;;0.50;99.90;;;;;;7378543;19;20321;-84
2022/01/15 00:53:00;;;;;;;3.70;1.77;;;0.60;99.90;;;;;;7381199;19;20335;-80
2022/01/15 00:55:26;;;;;;;3.10;1.67;;;0.60;99.90;;;;;;7379903;19;20355;-83
2022/01/15 00:57:52;;;;;;;1.92;1.50;;;0.50;99.90;;;;;;7380932;19;20384;-84
2022/01/15 01:00:20;;;;;;;4.63;1.48;;;0.40;99.90;;;;;;7378039;19;20352;-89
2022/01/15 01:02:45;;;;;;;1.48;1.30;;;0.40;99.90;;;;;;7391074;19;20876;-84
2022/01/15 01:05:11;;;;;;;1.67;1.45;;;0.30;99.90;;;;;;7390658;19;20337;-79
2022/01/15 01:07:37;;;;;;;3.63;1.88;;;0.30;99.90;;;;;;7389597;19;20317;-90
2022/01/15 01:10:23;;;;;;;1.60;1.50;;;0.30;99.90;;;;;;7391158;19;20301;-81
2022/01/15 01:23:36;;;;;;;1.85;1.55;;;0.10;99.90;;;;;;7288494;19;2004368;-84
2022/01/15 01:26:21;;;;;;;2.13;1.80;;;0.00;99.90;;;;;;7390005;19;20337;-79
2022/01/15 01:28:56;;;;;;;1.70;1.60;;;-0.10;99.90;;;;;;7287335;19;2006849;-86
2022/01/15 01:31:29;;;;;;;2.33;1.73;;;-0.10;99.90;;;;;;7389229;19;20333;-86
2022/01/15 01:34:04;;;;;;;2.60;1.98;;;-0.10;99.90;;;;;;7389230;19;20328;-80
2022/01/15 01:36:45;;;;;;;2.40;1.75;;;-0.10;99.90;;;;;;7392035;19;20341;-86
2022/01/15 01:39:16;;;;;;;2.58;1.73;;;-0.20;99.90;;;;;;7387885;19;20667;-85
2022/01/15 01:41:48;;;;;;;1.70;1.48;;;-0.20;99.90;;;;;;7388454;19;20313;-88
2022/01/15 01:44:18;;;;;;;3.47;1.42;;;-0.30;99.90;;;;;;7388553;19;20504;-87
2022/01/15 01:46:51;;;;;;;1.60;1.25;;;-0.30;99.90;;;;;;7388594;19;20329;-83
2022/01/15 01:49:19;;;;;;;1.70;1.50;;;-0.40;99.90;;;;;;7402503;19;20297;-84
2022/01/15 01:51:44;;;;;;;2.75;1.50;;;-0.40;99.90;;;;;;7397325;19;20345;-87
2022/01/15 01:54:11;;;;;;;2.88;1.73;;;-0.30;99.90;;;;;;7391352;19;20324;-89
2022/01/15 01:56:37;;;;;;;4.03;1.67;;;-0.40;99.90;;;;;;7392820;19;20316;-90
2022/01/15 01:59:04;;;;;;;1.77;1.60;;;-0.50;99.90;;;;;;7391069;19;20348;-88
2022/01/15 02:01:29;;;;;;;1.30;1.20;;;-0.60;99.90;;;;;;7384637;19;20356;-81
2022/01/15 02:03:59;;;;;;;3.43;1.50;;;-0.70;99.90;;;;;;7389475;19;20311;-83
2022/01/15 02:06:24;;;;;;;1.60;1.47;;;-0.60;99.90;;;;;;7386347;19;20858;-79
2022/01/15 02:08:51;;;;;;;2.60;1.42;;;-0.60;99.90;;;;;;7385584;19;20834;-80
2022/01/15 02:11:17;;;;;;;2.25;1.65;;;-0.60;99.90;;;;;;7388831;19;20373;-79
2022/01/15 02:13:44;;;;;;;1.42;1.30;;;-0.60;99.90;;;;;;7385838;19;20320;-87
2022/01/15 02:16:10;;;;;;;2.00;1.30;;;-0.60;99.90;;;;;;7390392;19;20324;-78
2022/01/15 02:18:36;;;;;;;1.80;1.58;;;-0.60;99.90;;;;;;7367928;19;20382;-86
2022/01/15 02:23:45;;;;;;;1.75;1.65;;;-0.60;99.90;;;;;;7385892;19;20329;-83
2022/01/15 02:26:15;;;;;;;2.60;1.48;;;-0.60;99.90;;;;;;7388671;19;20688;-83
2022/01/15 02:28:42;;;;;;;4.22;1.67;;;-0.60;99.90;;;;;;7363855;19;20309;-83
2022/01/15 02:31:13;;;;;;;1.40;1.30;;;-0.70;99.90;;;;;;7387614;19;20356;-84
2022/01/15 02:33:39;;;;;;;4.73;1.50;;;-0.70;99.90;;;;;;7388814;19;20352;-81
2022/01/15 02:36:07;;;;;;;2.70;1.75;;;-0.70;99.90;;;;;;7389885;19;20341;-81
2022/01/15 02:38:33;;;;;;;1.92;1.50;;;-0.70;99.90;;;;;;7389065;19;20348;-80
2022/01/15 02:40:58;;;;;;;4.03;1.60;;;-0.70;99.90;;;;;;7386782;19;20335;-85
2022/01/15 02:43:32;;;;;;;2.17;1.40;;;-0.70;99.90;;;;;;7387203;19;20344;-81
2022/01/15 02:49:00;;;;;;;3.22;1.73;;;-0.80;99.90;;;;;;7282134;19;2010001;-77
2022/01/15 02:51:30;;;;;;;3.55;1.83;;;-0.80;99.90;;;;;;7385622;19;20308;-79
2022/01/15 02:53:55;;;;;;;5.20;1.58;;;-0.80;99.90;;;;;;7388256;19;20300;-80
2022/01/15 02:56:22;;;;;;;1.50;1.40;;;-0.80;99.90;;;;;;7389183;19;20303;-82
2022/01/15 02:58:48;;;;;;;3.05;1.80;;;-0.90;99.90;;;;;;7385666;19;20349;-80
2022/01/15 03:01:13;;;;;;;2.90;1.50;;;-0.90;99.90;;;;;;7388269;19;20331;-84
2022/01/15 03:03:39;;;;;;;1.40;1.30;;;-0.80;99.90;;;;;;7389120;19;20364;-80
2022/01/15 03:06:09;;;;;;;3.53;1.90;;;-0.80;99.90;;;;;;7389062;19;20293;-78
2022/01/15 03:08:35;;;;;;;4.40;1.57;;;-0.90;99.90;;;;;;7387239;19;20345;-80
2022/01/15 03:11:01;;;;;;;2.67;1.70;;;-0.90;99.90;;;;;;7387772;19;20718;-80
2022/01/15 03:13:27;;;;;;;3.13;1.75;;;-0.90;99.90;;;;;;7388748;19;20309;-79
2022/01/15 03:15:52;;;;;;;3.03;1.85;;;-0.90;99.90;;;;;;7388909;19;20704;-81
2022/01/15 03:18:18;;;;;;;2.20;1.60;;;-1.00;99.90;;;;;;7384586;19;20326;-83
2022/01/15 03:20:44;;;;;;;1.55;1.23;;;-1.00;99.90;;;;;;7387771;19;20364;-77
2022/01/15 03:23:09;;;;;;;3.25;1.90;;;-0.90;99.90;;;;;;7389586;19;20321;-81
2022/01/15 03:25:35;;;;;;;5.00;1.80;;;-1.00;99.90;;;;;;7383844;19;20337;-88
2022/01/15 03:28:00;;;;;;;2.13;1.70;;;-0.90;99.90;;;;;;7386544;19;20305;-78
2022/01/15 03:30:26;;;;;;;3.60;1.77;;;-0.90;99.90;;;;;;7385781;19;20341;-79
2022/01/15 03:32:52;;;;;;;2.50;1.60;;;-0.90;99.90;;;;;;7385959;19;20430;-78
2022/01/15 03:35:17;;;;;;;1.60;1.50;;;-0.90;99.90;;;;;;7384925;19;20838;-81
2022/01/15 03:37:43;;;;;;;3.33;2.20;;;-1.00;99.90;;;;;;7386863;19;20340;-77
2022/01/15 03:40:10;;;;;;;2.40;1.90;;;-1.00;99.90;;;;;;7380826;19;20313;-83
2022/01/15 03:42:36;;;;;;;3.85;2.30;;;-0.90;99.90;;;;;;7350614;19;20371;-81
2022/01/15 03:45:02;;;;;;;4.32;2.45;;;-0.90;99.90;;;;;;7384130;19;20329;-79
2022/01/15 03:47:28;;;;;;;2.42;1.60;;;-0.80;99.90;;;;;;7386714;19;20329;-81
2022/01/15 03:49:53;;;;;;;2.25;1.70;;;-0.80;99.90;;;;;;7385364;19;20344;-89
2022/01/15 03:52:19;;;;;;;3.63;2.30;;;-0.80;99.90;;;;;;7385836;19;20337;-82
2022/01/15 03:54:45;;;;;;;3.50;1.80;;;-0.80;99.90;;;;;;7384276;19;20696;-81
2022/01/15 03:57:11;;;;;;;3.47;1.98;;;-0.80;99.90;;;;;;7386001;19;20332;-83
2022/01/15 03:59:36;;;;;;;4.75;2.60;;;-0.80;99.90;;;;;;7382253;19;20343;-87
2022/01/15 04:02:02;;;;;;;3.77;2.23;;;-0.70;99.90;;;;;;7383371;19;20431;-82
2022/01/15 04:04:28;;;;;;;4.28;2.08;;;-0.70;99.90;;;;;;7382870;19;20321;-82
2022/01/15 04:06:54;;;;;;;2.95;1.52;;;-0.70;99.90;;;;;;7385965;19;20296;-84
2022/01/15 04:09:19;;;;;;;3.37;2.23;;;-0.70;99.90;;;;;;7382567;19;20332;-80
2022/01/15 04:11:45;;;;;;;3.05;1.90;;;-0.70;99.90;;;;;;7383643;19;20328;-83
2022/01/15 04:14:11;;;;;;;2.22;1.75;;;-0.60;99.90;;;;;;7383933;19;20368;-82
2022/01/15 04:16:36;;;;;;;5.03;2.03;;;-0.60;99.90;;;;;;7386114;19;20870;-82
2022/01/15 04:19:03;;;;;;;1.92;1.73;;;-0.50;99.90;;;;;;7384128;19;20380;-81
2022/01/15 04:21:28;;;;;;;1.60;1.50;;;-0.60;99.90;;;;;;7383782;19;21400;-80
2022/01/15 04:23:54;;;;;;;2.88;2.03;;;-0.60;99.90;;;;;;7383362;19;20351;-81
2022/01/15 04:26:24;;;;;;;2.67;1.60;;;-0.50;99.90;;;;;;7385543;19;20376;-81
2022/01/15 04:28:50;;;;;;;2.87;1.90;;;-0.50;99.90;;;;;;7383102;19;20335;-84
2022/01/15 04:31:17;;;;;;;2.93;1.67;;;-0.60;99.90;;;;;;7380805;19;20352;-80
2022/01/15 04:33:42;;;;;;;2.78;1.80;;;-0.60;99.90;;;;;;7382717;19;21058;-81
2022/01/15 04:36:09;;;;;;;2.33;1.70;;;-0.60;99.90;;;;;;7388387;19;20319;-79
2022/01/15 04:38:37;;;;;;;2.45;1.60;;;-0.60;99.90;;;;;;7388528;19;20372;-79
2022/01/15 04:41:03;;;;;;;2.00;1.77;;;-0.60;99.90;;;;;;7390850;19;20984;-81
2022/01/15 04:43:28;;;;;;;2.25;1.63;;;-0.60;99.90;;;;;;7388912;19;20336;-79
2022/01/15 04:45:54;;;;;;;3.03;1.73;;;-0.70;99.90;;;;;;7388996;19;20333;-83
2022/01/15 04:48:20;;;;;;;4.00;1.97;;;-0.70;99.90;;;;;;7377714;19;20353;-82
2022/01/15 04:50:45;;;;;;;2.38;1.75;;;-0.70;99.90;;;;;;7385143;19;20420;-80
2022/01/15 04:53:11;;;;;;;2.07;1.77;;;-0.70;99.90;;;;;;7389299;19;20353;-82
2022/01/15 04:55:37;;;;;;;2.93;2.13;;;-0.60;99.90;;;;;;7388630;19;20336;-82
2022/01/15 04:58:03;;;;;;;3.97;1.50;;;-0.60;99.90;;;;;;7386846;19;20874;-80
2022/01/15 05:00:29;;;;;;;2.28;1.65;;;-0.60;99.90;;;;;;7388590;19;20340;-90
2022/01/15 05:02:56;;;;;;;4.15;1.90;;;-0.60;99.90;;;;;;7397328;19;20327;-83
2022/01/15 05:05:23;;;;;;;5.70;3.40;;;-0.50;99.90;;;;;;7392942;19;20470;-88
2022/01/15 05:07:48;;;;;;;4.82;2.95;;;-0.50;99.90;;;;;;7385428;19;20334;-92
2022/01/15 05:10:19;;;;;;;3.87;2.70;;;-0.30;99.90;;;;;;7394908;19;20332;-87
2022/01/15 05:12:46;;;;;;;4.10;3.70;;;-0.20;99.90;;;;;;7396142;19;20343;-88
2022/01/15 05:15:13;;;;;;;4.13;3.60;;;0.00;99.90;;;;;;7394265;19;20319;-86
2022/01/15 05:17:38;;;;;;;4.40;3.53;;;0.20;99.90;;;;;;7394664;19;20309;-88
2022/01/15 05:20:05;;;;;;;3.95;3.33;;;0.30;99.90;;;;;;7392688;19;20349;-88
2022/01/15 05:22:32;;;;;;;4.18;3.58;;;0.40;99.90;;;;;;7395705;19;20340;-82
2022/01/15 05:24:57;;;;;;;6.65;4.25;;;0.60;99.90;;;;;;7390225;19;20321;-83
2022/01/15 05:27:23;;;;;;;5.10;3.87;;;0.60;99.90;;;;;;7394516;19;20353;-78
2022/01/15 05:29:49;;;;;;;3.58;3.20;;;0.60;99.90;;;;;;7391224;19;20305;-83
2022/01/15 05:32:14;;;;;;;3.50;3.20;;;0.70;99.90;;;;;;7391588;19;20344;-79
2022/01/15 05:34:40;;;;;;;4.40;3.30;;;0.80;99.90;;;;;;7391990;19;20316;-85
2022/01/15 05:37:06;;;;;;;4.15;3.67;;;0.80;99.90;;;;;;7394234;19;20309;-82
2022/01/15 05:39:31;;;;;;;4.77;3.37;;;0.80;99.90;;;;;;7389820;19;20301;-78
2022/01/15 05:41:57;;;;;;;6.40;4.35;;;0.80;99.90;;;;;;7392089;19;20319;-88
2022/01/15 05:44:23;;;;;;;3.90;3.45;;;0.80;99.90;;;;;;7391582;19;20313;-89
2022/01/15 05:46:49;;;;;;;4.73;3.60;;;0.90;99.90;;;;;;7392101;19;20340;-80
2022/01/15 05:49:14;;;;;;;4.72;3.47;;;0.90;99.90;;;;;;7387943;19;21097;-80
2022/01/15 05:51:40;;;;;;;4.97;3.73;;;0.90;99.90;;;;;;7388053;19;20858;-80
2022/01/15 05:54:10;;;;;;;5.33;3.80;;;1.00;99.90;;;;;;7388062;19;20311;-79
2022/01/15 05:56:36;;;;;;;4.45;3.80;;;1.00;99.90;;;;;;7390547;19;20308;-91
2022/01/15 05:59:02;;;;;;;4.00;3.40;;;1.10;99.90;;;;;;7385143;19;20707;-83
2022/01/15 06:01:27;;;;;;;4.63;3.47;;;1.10;99.90;;;;;;7361717;19;20423;-81
2022/01/15 06:03:53;;;;;;;5.32;3.85;;;1.10;99.90;;;;;;7386998;19;20723;-82
2022/01/15 06:06:19;;;;;;;5.60;3.77;;;1.20;99.90;;;;;;7388842;19;20352;-84
2022/01/15 06:08:45;;;;;;;5.50;4.07;;;1.20;99.90;;;;;;7389572;19;20336;-82
2022/01/15 06:11:11;;;;;;;6.43;4.07;;;1.20;99.90;;;;;;7389179;19;21396;-90
2022/01/15 07:14:37;;;;;;;8.68;4.40;;;1.70;99.90;;;;;;7401701;19;20335;-81
2022/01/15 07:17:03;;;;;;;9.43;5.53;;;1.80;99.90;;;;;;7391079;19;20328;-81
2022/01/15 07:19:31;;;;;;;7.93;4.93;;;1.70;99.90;;;;;;7397861;19;20406;-81
2022/01/15 07:21:57;;;;;;;6.47;4.17;;;1.70;99.90;;;;;;7398583;19;21091;-82
2022/01/15 07:24:34;;;;;;;3.63;3.30;;;1.70;99.90;;;;;;7376507;19;20325;-81
2022/01/15 07:27:01;;;;;;;5.50;3.97;;;1.60;99.90;;;;;;7401087;19;20325;-81
2022/01/15 07:29:30;;;;;;;5.78;3.83;;;1.70;99.90;;;;;;7396445;19;20324;-81
2022/01/15 07:31:55;;;;;;;5.03;3.33;;;1.70;99.90;;;;;;7396685;19;20301;-82
2022/01/15 07:34:21;;;;;;;6.22;3.40;;;1.70;99.90;;;;;;7406149;19;20313;-83
2022/01/15 07:36:53;;;;;;;6.07;3.30;;;1.80;99.90;;;;;;7412948;19;20329;-84
2022/01/15 07:39:18;;;;;;;4.63;3.22;;;1.80;99.90;;;;;;7414650;19;20321;-82
2022/01/15 07:41:44;;;;;;;6.07;3.72;;;1.70;99.90;;;;;;7414571;19;20328;-82
2022/01/15 07:44:10;;;;;;;6.17;3.40;;;1.70;99.90;;;;;;7412942;19;20309;-81
2022/01/15 07:46:37;;;;;;;8.10;3.58;;;1.70;99.90;;;;;;7405617;19;20356;-81
2022/01/15 07:49:05;;;;;;;8.43;3.50;;;1.70;99.90;;;;;;7408829;19;20300;-83
2022/01/15 07:51:31;;;;;;;6.60;4.07;;;1.70;99.90;;;;;;7414406;19;20297;-82
2022/01/15 07:54:02;;;;;;;6.60;3.40;;;1.80;99.90;;;;;;7408694;19;20324;-82
2022/01/15 07:56:29;;;;;;;7.43;4.10;;;1.80;99.90;;;;;;7410639;19;20308;-82
2022/01/15 07:58:56;;;;;;;6.75;3.65;;;1.70;99.90;;;;;;7407684;19;20329;-82
2022/01/15 08:01:22;;;;;;;8.10;4.00;;;1.70;99.90;;;;;;7393389;19;20335;-82
2022/01/15 08:03:48;;;;;;;6.50;3.70;;;1.70;99.90;;;;;;7403563;19;20830;-83
2022/01/15 08:06:14;;;;;;;6.93;3.63;;;1.80;99.90;;;;;;7408369;19;20312;-82
2022/01/15 08:09:01;;;;;;;8.27;5.28;;;1.80;99.90;;;;;;7342942;19;20333;-81
2022/01/15 08:12:58;;;;;;;7.18;4.03;;;1.90;99.90;;;;;;7231512;19;2004456;-81
2022/01/15 08:32:59;;;;;;;8.55;3.90;;;1.90;99.90;;;;;;7420382;19;20336;-83
2022/01/15 08:35:25;;;;;;;7.87;3.63;;;1.90;99.90;;;;;;7418644;19;20317;-86
2022/01/15 08:37:51;;;;;;;7.25;4.70;;;1.90;99.90;;;;;;7413270;19;20313;-84
2022/01/15 08:40:21;;;;;;;9.10;3.63;;;1.90;99.90;;;;;;7418824;19;20311;-83
2022/01/15 08:42:48;;;;;;;7.97;4.67;;;2.00;99.90;;;;;;7373571;19;20834;-82
2022/01/15 08:45:15;;;;;;;9.52;4.47;;;2.00;99.90;;;;;;7409797;19;20308;-83
2022/01/15 08:47:45;;;;;;;8.45;3.90;;;1.90;99.90;;;;;;7410719;19;20319;-83
2022/01/15 08:50:12;;;;;;;5.43;3.47;;;1.90;99.90;;;;;;7421415;19;20325;-82
2022/01/15 08:52:40;;;;;;;11.20;4.18;;;1.90;99.90;;;;;;7423734;19;20318;-87
2022/01/15 08:55:07;;;;;;;8.88;3.63;;;1.90;99.90;;;;;;7395462;19;20308;-88
2022/01/15 08:57:33;;;;;;;8.55;3.85;;;1.90;99.90;;;;;;7425557;19;20331;-84
2022/01/15 09:00:05;;;;;;;6.70;3.95;;;2.00;99.90;;;;;;7410655;19;20313;-82
2022/01/15 09:02:33;;;;;;;10.82;4.13;;;2.00;99.90;;;;;;7399670;19;20317;-84
2022/01/15 09:04:59;;;;;;;8.65;4.00;;;2.00;99.90;;;;;;7416323;19;20882;-83
2022/01/15 09:07:24;;;;;;;7.00;4.13;;;2.10;99.90;;;;;;7411238;19;20327;-82
2022/01/15 09:09:51;;;;;;;7.03;3.47;;;2.00;99.90;;;;;;7417088;19;20371;-82
2022/01/15 09:12:17;;;;;;;4.50;2.95;;;2.10;99.90;;;;;;7411761;19;20858;-84
2022/01/15 09:14:43;;;;;;;6.90;4.20;;;2.10;99.90;;;;;;7416376;19;20339;-83
2022/01/15 09:17:10;;;;;;;10.23;3.92;;;2.20;99.90;;;;;;7389870;19;20303;-83
2022/01/15 09:19:36;;;;;;;9.80;3.95;;;2.10;99.90;;;;;;7408189;19;20300;-84
2022/01/15 09:22:08;;;;;;;7.10;3.53;;;2.20;99.90;;;;;;7409306;19;21247;-83
2022/01/15 09:24:47;;;;;;;8.48;4.38;;;2.30;99.90;;;;;;7383980;19;20364;-82
2022/01/15 09:30:43;;;;;;;7.35;4.20;;;2.20;99.90;;;;;;7395169;19;20672;-83
2022/01/15 09:33:10;;;;;;;6.05;3.75;;;2.20;99.90;;;;;;7372444;19;20329;-84
2022/01/15 09:35:37;;;;;;;9.32;4.15;;;2.20;99.90;;;;;;7347660;19;20300;-83
2022/01/15 09:38:03;;;;;;;8.00;3.75;;;2.20;99.90;;;;;;7336981;19;20332;-82
2022/01/15 09:40:33;;;;;;;7.40;3.45;;;2.30;99.90;;;;;;7390728;19;20357;-82
2022/01/15 09:42:59;;;;;;;8.73;4.50;;;2.20;99.90;;;;;;7394663;19;20358;-82
2022/01/15 09:45:29;;;;;;;9.30;4.28;;;2.20;99.90;;;;;;7397920;19;20330;-82
2022/01/15 09:48:00;;;;;;;10.10;3.80;;;2.30;99.90;;;;;;7395280;19;20331;-82
2022/01/15 09:50:29;;;;;;;8.00;3.83;;;2.20;99.90;;;;;;7400151;19;20315;-82
2022/01/15 09:52:55;;;;;;;7.68;3.63;;;2.30;99.90;;;;;;7400738;19;20324;-81
2022/01/15 09:55:21;;;;;;;5.80;3.50;;;2.30;99.90;;;;;;7399897;19;20313;-82
2022/01/15 09:57:48;;;;;;;8.93;3.97;;;2.40;99.90;;;;;;7400723;19;20341;-82
2022/01/15 10:00:18;;;;;;;10.75;4.25;;;2.40;99.90;;;;;;7357666;19;20314;-83
2022/01/15 10:02:45;;;;;;;12.27;5.30;;;2.40;99.90;;;;;;7400520;19;20375;-83
2022/01/15 10:05:12;;;;;;;8.35;4.50;;;2.50;99.90;;;;;;7343849;19;20321;-85
2022/01/15 10:07:37;;;;;;;10.02;5.50;;;2.40;99.90;;;;;;7412815;19;20792;-83
2022/01/15 10:10:20;;;;;;;15.48;4.82;;;2.50;99.90;;;;;;7410896;19;20305;-86
2022/01/15 10:13:05;;;;;;;8.70;4.63;;;2.50;99.90;;;;;;7410311;19;20325;-84
2022/01/15 10:15:31;;;;;;;5.80;3.63;;;2.40;99.90;;;;;;7387697;19;20317;-78
2022/01/15 10:17:57;;;;;;;7.77;4.10;;;2.50;99.90;;;;;;7385825;19;20329;-78
2022/01/15 10:20:23;;;;;;;13.38;4.45;;;2.40;99.90;;;;;;7378520;19;20347;-78
2022/01/15 10:22:50;;;;;;;6.47;4.00;;;2.60;99.90;;;;;;7382087;19;20645;-78
2022/01/15 10:25:21;;;;;;;9.45;4.82;;;2.50;99.90;;;;;;7379665;19;20316;-78
2022/01/15 10:27:48;;;;;;;5.57;3.40;;;2.40;99.90;;;;;;7384828;19;20336;-79
2022/01/15 10:30:21;;;;;;;13.13;4.55;;;2.40;99.90;;;;;;7386466;19;20434;-79
2022/01/15 10:32:59;;;;;;;7.18;3.83;;;2.50;99.90;;;;;;7388040;19;20313;-79
2022/01/15 10:35:27;;;;;;;7.00;3.57;;;2.50;99.90;;;;;;7283271;19;2004839;-79
2022/01/15 10:37:55;;;;;;;8.98;4.18;;;2.60;99.90;;;;;;7362897;19;20339;-79
2022/01/15 10:40:25;;;;;;;10.88;4.13;;;2.60;99.90;;;;;;7384869;19;20343;-78
2022/01/15 10:42:56;;;;;;;11.45;6.55;;;2.60;99.90;;;;;;7385849;19;20335;-79
2022/01/15 10:45:23;;;;;;;15.18;9.25;;;2.60;99.90;;;;;;7384899;19;20678;-79
2022/01/15 10:47:49;;;;;;;22.83;13.32;;;2.60;99.90;;;;;;7385663;19;20676;-79
2022/01/15 10:50:19;;;;;;;12.23;5.53;;;2.60;99.90;;;;;;7384413;19;20309;-79
2022/01/15 10:52:44;;;;;;;8.13;3.60;;;2.60;99.90;;;;;;7384714;19;20325;-78
2022/01/15 10:55:15;;;;;;;12.20;4.75;;;2.60;99.90;;;;;;7383699;19;20689;-79
2022/01/15 10:58:08;;;;;;;10.60;5.13;;;2.60;99.90;;;;;;7384833;19;20333;-79
2022/01/15 11:00:37;;;;;;;6.80;4.80;;;2.60;99.90;;;;;;7281441;19;2004382;-79
2022/01/15 11:03:10;;;;;;;11.50;4.07;;;2.60;99.90;;;;;;7384161;19;20884;-78
2022/01/15 11:05:37;;;;;;;8.98;4.65;;;2.70;99.90;;;;;;7384021;19;20320;-79
2022/01/15 11:08:11;;;;;;;7.27;3.83;;;2.70;99.90;;;;;;7369129;19;20308;-79
2022/01/15 11:11:00;;;;;;;10.00;4.55;;;2.80;99.90;;;;;;7383632;19;20376;-79
2022/01/15 11:13:36;;;;;;;8.73;3.70;;;2.70;99.90;;;;;;7282030;19;2004531;-80
2022/01/15 11:16:08;;;;;;;8.90;3.95;;;2.70;99.90;;;;;;7384872;19;20441;-78
2022/01/15 11:18:41;;;;;;;5.72;3.40;;;2.70;99.90;;;;;;7382718;19;20344;-78
2022/01/15 11:21:13;;;;;;;6.23;3.70;;;2.70;99.90;;;;;;7381509;19;20313;-79
2022/01/15 11:23:39;;;;;;;9.90;3.95;;;2.60;99.90;;;;;;7379050;19;20315;-79
2022/01/15 11:26:09;;;;;;;4.32;2.97;;;2.60;99.90;;;;;;7382454;19;20352;-78
2022/01/15 11:28:35;;;;;;;4.32;3.13;;;2.80;99.90;;;;;;7378939;19;20341;-79
2022/01/15 11:31:10;;;;;;;9.45;3.70;;;2.60;99.90;;;;;;7383553;19;21154;-77
2022/01/15 11:33:41;;;;;;;4.60;3.30;;;2.50;99.90;;;;;;7275784;19;2024809;-78
2022/01/15 11:36:07;;;;;;;5.93;3.63;;;2.50;99.90;;;;;;7382014;19;20321;-77
2022/01/15 11:38:39;;;;;;;8.10;4.00;;;2.50;99.90;;;;;;7377092;19;20352;-78
2022/01/15 11:41:06;;;;;;;7.88;3.72;;;2.50;99.90;;;;;;7380338;19;20432;-78
2022/01/15 11:43:33;;;;;;;8.25;3.85;;;2.80;99.90;;;;;;7376321;19;20377;-78
2022/01/15 11:46:03;;;;;;;6.32;3.58;;;2.60;99.90;;;;;;7377328;19;20328;-78
2022/01/15 11:48:36;;;;;;;7.32;3.78;;;2.70;99.90;;;;;;7379565;19;20332;-77
2022/01/15 11:51:13;;;;;;;5.93;3.40;;;2.70;99.90;;;;;;7383642;19;20770;-78
2022/01/15 11:53:53;;;;;;;8.32;3.40;;;2.70;99.90;;;;;;7279172;19;2004611;-78
2022/01/15 11:56:24;;;;;;;5.50;3.33;;;2.60;99.90;;;;;;7278977;19;2004659;-78
2022/01/15 11:58:50;;;;;;;11.10;3.33;;;2.60;99.90;;;;;;7378697;19;20463;-78
2022/01/15 12:01:36;;;;;;;5.17;2.97;;;2.70;99.90;;;;;;7378349;19;20753;-78
2022/01/15 12:04:27;;;;;;;7.18;3.65;;;3.10;99.90;;;;;;7378590;19;21193;-78
2022/01/15 12:07:07;;;;;;;6.47;3.30;;;2.90;99.90;;;;;;7278040;19;2007803;-78
2022/01/15 12:09:43;;;;;;;7.70;3.67;;;2.90;99.90;;;;;;7377493;19;20388;-78
2022/01/15 12:12:34;;;;;;;8.90;3.10;;;3.00;99.90;;;;;;7379576;19;20317;-78
2022/01/15 12:15:01;;;;;;;6.57;3.50;;;2.90;99.90;;;;;;7382145;19;20386;-79
2022/01/15 12:17:32;;;;;;;5.25;3.20;;;2.90;99.90;;;;;;7381943;19;20377;-78
2022/01/15 12:20:16;;;;;;;6.13;3.53;;;2.90;99.90;;;;;;7377896;19;20361;-78
2022/01/15 12:22:43;;;;;;;11.60;4.25;;;3.00;99.90;;;;;;7275609;19;2009603;-79
2022/01/15 12:25:34;;;;;;;5.50;3.10;;;2.90;99.90;;;;;;7378526;19;20320;-79
2022/01/15 12:28:08;;;;;;;7.55;3.40;;;3.00;99.90;;;;;;7276478;19;2006888;-78
2022/01/15 12:30:40;;;;;;;5.63;3.75;;;3.00;99.90;;;;;;7377145;19;20301;-78
2022/01/15 12:33:06;;;;;;;6.18;3.80;;;2.90;99.90;;;;;;7376395;19;20308;-79
2022/01/15 12:35:34;;;;;;;9.88;3.83;;;2.90;99.90;;;;;;7379468;19;20316;-78
2022/01/15 12:38:03;;;;;;;6.23;3.93;;;3.00;99.90;;;;;;7381646;19;20361;-78
2022/01/15 12:40:47;;;;;;;9.67;3.63;;;2.90;99.90;;;;;;7336783;19;20328;-79
2022/01/15 12:43:24;;;;;;;7.53;4.00;;;2.90;99.90;;;;;;7376132;19;21012;-78
2022/01/15 12:45:54;;;;;;;7.43;3.70;;;2.90;99.90;;;;;;7380292;19;20872;-79
2022/01/15 12:48:21;;;;;;;8.37;3.80;;;2.90;99.90;;;;;;7376549;19;20346;-78
2022/01/15 12:50:51;;;;;;;5.28;2.90;;;3.00;99.90;;;;;;7377326;19;20319;-79
2022/01/15 12:53:21;;;;;;;4.97;3.20;;;2.90;99.90;;;;;;7364067;19;20412;-79
2022/01/15 12:55:47;;;;;;;10.20;3.63;;;2.80;99.90;;;;;;7379785;19;20344;-79
2022/01/15 12:58:15;;;;;;;6.78;3.13;;;2.80;99.90;;;;;;7382666;19;20315;-78
2022/01/15 13:00:40;;;;;;;6.80;3.30;;;2.80;99.90;;;;;;7360871;19;20862;-78
2022/01/15 13:03:08;;;;;;;6.30;3.40;;;2.70;99.90;;;;;;7384534;19;20324;-79
2022/01/15 13:05:39;;;;;;;7.47;2.83;;;2.60;99.90;;;;;;7385150;19;20376;-79
2022/01/15 13:08:15;;;;;;;6.63;3.22;;;2.60;99.90;;;;;;7386952;19;20316;-79
2022/01/15 13:10:56;;;;;;;4.93;2.90;;;2.70;99.90;;;;;;7385029;19;20332;-78
2022/01/15 13:13:33;;;;;;;7.90;3.20;;;2.80;99.90;;;;;;7383641;19;20373;-78
2022/01/15 13:16:09;;;;;;;8.07;3.50;;;2.70;99.90;;;;;;7388002;19;20301;-78
2022/01/15 13:18:45;;;;;;;5.25;3.40;;;2.70;99.90;;;;;;7386191;19;20317;-78
2022/01/15 13:21:11;;;;;;;4.80;2.80;;;2.70;99.90;;;;;;7390263;19;20380;-78
2022/01/15 13:23:38;;;;;;;5.33;3.03;;;2.70;99.90;;;;;;7384642;19;20319;-79
2022/01/15 13:26:04;;;;;;;5.50;2.90;;;2.70;99.90;;;;;;7389555;19;20309;-79
2022/01/15 13:28:29;;;;;;;8.23;3.30;;;2.70;99.90;;;;;;7388756;19;20368;-78
2022/01/15 13:30:57;;;;;;;8.43;3.75;;;2.60;99.90;;;;;;7384977;19;20403;-78
2022/01/15 13:33:36;;;;;;;3.93;2.77;;;2.80;99.90;;;;;;7384425;19;20325;-79
2022/01/15 13:36:06;;;;;;;5.97;3.38;;;2.80;99.90;;;;;;7282422;19;2007411;-78
2022/01/15 13:38:32;;;;;;;6.30;3.17;;;2.80;99.90;;;;;;7381899;19;20313;-78
2022/01/15 13:41:23;;;;;;;3.45;2.60;;;2.80;99.90;;;;;;7382859;19;20347;-78
2022/01/15 13:43:54;;;;;;;5.30;2.95;;;2.80;99.90;;;;;;7382125;19;20308;-79
2022/01/15 13:46:44;;;;;;;4.30;3.00;;;2.80;99.90;;;;;;7385039;19;20309;-78
2022/01/15 13:49:14;;;;;;;4.25;2.97;;;2.80;99.90;;;;;;7281669;19;2007636;-79
2022/01/15 13:54:38;;;;;;;8.23;3.42;;;2.90;99.90;;;;;;7277710;19;2006814;-79
2022/01/15 13:57:08;;;;;;;6.85;3.22;;;2.80;99.90;;;;;;7385760;19;20293;-79
2022/01/15 13:59:34;;;;;;;8.13;3.35;;;2.80;99.90;;;;;;7383071;19;20360;-79
2022/01/15 14:02:00;;;;;;;6.53;3.35;;;2.90;99.90;;;;;;7380934;19;20317;-79
2022/01/15 14:04:31;;;;;;;6.00;3.10;;;2.80;99.90;;;;;;7381319;19;20835;-79
2022/01/15 14:06:58;;;;;;;5.57;3.47;;;2.80;99.90;;;;;;7383564;19;20323;-79
2022/01/15 14:09:24;;;;;;;7.65;3.47;;;2.80;99.90;;;;;;7379907;19;20692;-79
2022/01/15 14:12:10;;;;;;;9.03;3.30;;;2.80;99.90;;;;;;7382570;19;20309;-80
2022/01/15 14:14:51;;;;;;;5.65;2.90;;;2.90;99.90;;;;;;7382400;19;20322;-79
2022/01/15 14:17:20;;;;;;;6.28;2.92;;;2.90;99.90;;;;;;7348814;19;20312;-78
2022/01/15 14:22:31;;;;;;;5.50;2.88;;;2.80;99.90;;;;;;7382334;19;20318;-79
2022/01/15 14:25:19;;;;;;;6.72;2.88;;;2.80;99.90;;;;;;7383805;19;20556;-79
2022/01/15 14:27:47;;;;;;;8.50;3.17;;;2.80;99.90;;;;;;7384168;19;20305;-78
2022/01/15 14:30:13;;;;;;;5.85;3.05;;;2.70;99.90;;;;;;7382898;19;20815;-78
2022/01/15 14:32:38;;;;;;;4.47;2.83;;;2.70;99.90;;;;;;7382748;19;20793;-79
2022/01/15 14:35:04;;;;;;;6.63;3.42;;;2.80;99.90;;;;;;7382754;19;20345;-78
2022/01/15 14:37:30;;;;;;;6.10;3.13;;;2.80;99.90;;;;;;7382086;19;20647;-79
2022/01/15 14:39:56;;;;;;;3.57;2.60;;;2.80;99.90;;;;;;7381872;19;20340;-78
2022/01/15 14:42:23;;;;;;;4.33;2.73;;;2.80;99.90;;;;;;7382257;19;20308;-78
2022/01/15 14:44:53;;;;;;;5.68;3.10;;;2.70;99.90;;;;;;7381285;19;20910;-78
2022/01/15 14:47:18;;;;;;;5.40;3.13;;;2.80;99.90;;;;;;7380589;19;20320;-77